sensor_id;sensor_type;location;lat;lon;timestamp;P1;durP1;ratioP1;P2;durP2;ratioP2
17790;SDS011;9019;48.132;-1.210;2022-10-16T00:00:01;7.13;;;4.43;;
17790;SDS011;9019;48.132;-1.210;2022-10-16T00:02:29;6.23;;;4.47;;
17790;SDS011;9019;48.132;-1.210;2022-10-16T00:04:56;8.67;;;5.07;;
17790;SDS011;9019;48.132;-1.210;2022-10-16T00:07:23;9.80;;;4.80;;
17790;SDS011;9019;48.132;-1.210;2022-10-16T00:09:51;8.63;;;5.43;;
17790;SDS011;9019;48.132;-1.210;2022-10-16T00:12:18;7.17;;;5.17;;
17790;SDS011;9019;48.132;-1.210;2022-10-16T00:14:45;12.37;;;5.50;;
17790;SDS011;9019;48.132;-1.210;2022-10-16T00:17:12;9.33;;;5.70;;
17790;SDS011;9019;48.132;-1.210;2022-10-16T00:19:41;10.17;;;5.73;;
17790;SDS011;9019;48.132;-1.210;2022-10-16T00:22:08;10.53;;;5.83;;
17790;SDS011;9019;48.132;-1.210;2022-10-16T00:24:36;10.53;;;6.03;;
17790;SDS011;9019;48.132;-1.210;2022-10-16T00:27:03;14.27;;;6.27;;
17790;SDS011;9019;48.132;-1.210;2022-10-16T00:29:30;8.63;;;5.90;;
17790;SDS011;9019;48.132;-1.210;2022-10-16T00:31:57;11.40;;;5.43;;
17790;SDS011;9019;48.132;-1.210;2022-10-16T00:34:24;12.60;;;6.50;;
17790;SDS011;9019;48.132;-1.210;2022-10-16T00:36:53;11.13;;;6.37;;
17790;SDS011;9019;48.132;-1.210;2022-10-16T00:39:20;13.13;;;6.37;;
17790;SDS011;9019;48.132;-1.210;2022-10-16T00:41:48;9.67;;;6.83;;
17790;SDS011;9019;48.132;-1.210;2022-10-16T00:47:01;12.30;;;6.30;;
17790;SDS011;9019;48.132;-1.210;2022-10-16T00:49:28;12.40;;;6.97;;
17790;SDS011;9019;48.132;-1.210;2022-10-16T00:51:57;9.03;;;6.53;;
17790;SDS011;9019;48.132;-1.210;2022-10-16T00:54:25;9.00;;;6.07;;
17790;SDS011;9019;48.132;-1.210;2022-10-16T00:56:53;12.60;;;6.57;;
17790;SDS011;9019;48.132;-1.210;2022-10-16T00:59:21;12.07;;;6.93;;
17790;SDS011;9019;48.132;-1.210;2022-10-16T01:01:49;12.50;;;6.87;;
17790;SDS011;9019;48.132;-1.210;2022-10-16T01:04:17;10.93;;;6.73;;
17790;SDS011;9019;48.132;-1.210;2022-10-16T01:06:46;12.30;;;6.90;;
17790;SDS011;9019;48.132;-1.210;2022-10-16T01:09:17;16.40;;;6.73;;
17790;SDS011;9019;48.132;-1.210;2022-10-16T01:11:49;14.03;;;6.63;;
17790;SDS011;9019;48.132;-1.210;2022-10-16T01:14:22;11.67;;;6.00;;
17790;SDS011;9019;48.132;-1.210;2022-10-16T01:16:53;13.30;;;6.27;;
17790;SDS011;9019;48.132;-1.210;2022-10-16T01:19:25;13.07;;;5.73;;
17790;SDS011;9019;48.132;-1.210;2022-10-16T01:21:53;17.93;;;5.83;;
17790;SDS011;9019;48.132;-1.210;2022-10-16T01:24:27;12.60;;;5.67;;
17790;SDS011;9019;48.132;-1.210;2022-10-16T01:27:03;10.63;;;5.67;;
17790;SDS011;9019;48.132;-1.210;2022-10-16T01:29:32;13.87;;;6.00;;
17790;SDS011;9019;48.132;-1.210;2022-10-16T01:32:02;13.10;;;5.93;;
17790;SDS011;9019;48.132;-1.210;2022-10-16T01:34:32;11.10;;;6.03;;
17790;SDS011;9019;48.132;-1.210;2022-10-16T01:37:02;13.30;;;6.10;;
17790;SDS011;9019;48.132;-1.210;2022-10-16T01:39:30;12.10;;;6.00;;
17790;SDS011;9019;48.132;-1.210;2022-10-16T01:42:00;11.77;;;6.20;;
17790;SDS011;9019;48.132;-1.210;2022-10-16T01:44:30;10.97;;;5.83;;
17790;SDS011;9019;48.132;-1.210;2022-10-16T01:46:58;13.10;;;5.63;;
17790;SDS011;9019;48.132;-1.210;2022-10-16T01:49:27;11.10;;;6.07;;
17790;SDS011;9019;48.132;-1.210;2022-10-16T01:51:57;15.13;;;6.03;;
17790;SDS011;9019;48.132;-1.210;2022-10-16T01:54:26;9.13;;;5.20;;
17790;SDS011;9019;48.132;-1.210;2022-10-16T01:56:54;10.20;;;5.60;;
17790;SDS011;9019;48.132;-1.210;2022-10-16T01:59:22;8.43;;;5.47;;
17790;SDS011;9019;48.132;-1.210;2022-10-16T02:01:54;11.10;;;5.60;;
17790;SDS011;9019;48.132;-1.210;2022-10-16T02:04:23;10.73;;;5.67;;
17790;SDS011;9019;48.132;-1.210;2022-10-16T02:06:52;8.63;;;5.03;;
17790;SDS011;9019;48.132;-1.210;2022-10-16T02:09:19;16.23;;;5.30;;
17790;SDS011;9019;48.132;-1.210;2022-10-16T02:11:46;7.97;;;5.30;;
17790;SDS011;9019;48.132;-1.210;2022-10-16T02:14:14;10.97;;;5.47;;
17790;SDS011;9019;48.132;-1.210;2022-10-16T02:16:42;11.63;;;5.90;;
17790;SDS011;9019;48.132;-1.210;2022-10-16T02:19:11;8.70;;;5.23;;
17790;SDS011;9019;48.132;-1.210;2022-10-16T02:21:40;8.67;;;5.17;;
17790;SDS011;9019;48.132;-1.210;2022-10-16T02:24:12;13.23;;;6.00;;
17790;SDS011;9019;48.132;-1.210;2022-10-16T02:26:43;9.93;;;5.60;;
17790;SDS011;9019;48.132;-1.210;2022-10-16T02:29:13;12.20;;;5.70;;
17790;SDS011;9019;48.132;-1.210;2022-10-16T02:31:43;11.57;;;5.73;;
17790;SDS011;9019;48.132;-1.210;2022-10-16T02:34:13;8.33;;;5.60;;
17790;SDS011;9019;48.132;-1.210;2022-10-16T02:36:41;12.33;;;6.23;;
17790;SDS011;9019;48.132;-1.210;2022-10-16T02:39:09;9.77;;;6.07;;
17790;SDS011;9019;48.132;-1.210;2022-10-16T02:41:36;11.63;;;6.27;;
17790;SDS011;9019;48.132;-1.210;2022-10-16T02:44:04;12.03;;;6.10;;
17790;SDS011;9019;48.132;-1.210;2022-10-16T02:46:31;9.93;;;6.00;;
17790;SDS011;9019;48.132;-1.210;2022-10-16T02:48:58;10.47;;;5.53;;
17790;SDS011;9019;48.132;-1.210;2022-10-16T02:51:27;10.03;;;5.50;;
17790;SDS011;9019;48.132;-1.210;2022-10-16T02:53:54;11.40;;;6.07;;
17790;SDS011;9019;48.132;-1.210;2022-10-16T02:56:21;9.47;;;5.40;;
17790;SDS011;9019;48.132;-1.210;2022-10-16T02:58:49;10.63;;;5.20;;
17790;SDS011;9019;48.132;-1.210;2022-10-16T03:01:16;10.77;;;5.27;;
17790;SDS011;9019;48.132;-1.210;2022-10-16T03:03:43;8.40;;;5.07;;
17790;SDS011;9019;48.132;-1.210;2022-10-16T03:06:10;7.70;;;4.80;;
17790;SDS011;9019;48.132;-1.210;2022-10-16T03:08:39;11.90;;;5.50;;
17790;SDS011;9019;48.132;-1.210;2022-10-16T03:11:06;9.97;;;5.43;;
17790;SDS011;9019;48.132;-1.210;2022-10-16T03:13:33;9.10;;;5.23;;
17790;SDS011;9019;48.132;-1.210;2022-10-16T03:16:00;8.63;;;5.40;;
17790;SDS011;9019;48.132;-1.210;2022-10-16T03:18:28;8.10;;;5.40;;
17790;SDS011;9019;48.132;-1.210;2022-10-16T03:20:55;7.73;;;5.33;;
17790;SDS011;9019;48.132;-1.210;2022-10-16T03:23:22;13.10;;;5.97;;
17790;SDS011;9019;48.132;-1.210;2022-10-16T03:25:50;9.87;;;5.30;;
17790;SDS011;9019;48.132;-1.210;2022-10-16T03:28:18;8.70;;;5.23;;
17790;SDS011;9019;48.132;-1.210;2022-10-16T03:30:46;10.43;;;5.60;;
17790;SDS011;9019;48.132;-1.210;2022-10-16T03:33:13;10.33;;;5.67;;
17790;SDS011;9019;48.132;-1.210;2022-10-16T03:35:40;9.43;;;5.13;;
17790;SDS011;9019;48.132;-1.210;2022-10-16T03:38:07;10.90;;;5.57;;
17790;SDS011;9019;48.132;-1.210;2022-10-16T03:40:34;8.90;;;5.30;;
17790;SDS011;9019;48.132;-1.210;2022-10-16T03:43:03;10.87;;;5.33;;
17790;SDS011;9019;48.132;-1.210;2022-10-16T03:45:30;10.80;;;5.20;;
17790;SDS011;9019;48.132;-1.210;2022-10-16T03:47:57;8.93;;;5.63;;
17790;SDS011;9019;48.132;-1.210;2022-10-16T03:50:24;9.00;;;5.03;;
17790;SDS011;9019;48.132;-1.210;2022-10-16T03:52:52;8.93;;;5.10;;
17790;SDS011;9019;48.132;-1.210;2022-10-16T03:55:19;10.50;;;5.20;;
17790;SDS011;9019;48.132;-1.210;2022-10-16T03:57:46;10.30;;;5.20;;
17790;SDS011;9019;48.132;-1.210;2022-10-16T04:00:15;13.97;;;5.40;;
17790;SDS011;9019;48.132;-1.210;2022-10-16T04:02:42;13.63;;;5.73;;
17790;SDS011;9019;48.132;-1.210;2022-10-16T04:05:09;15.57;;;6.10;;
17790;SDS011;9019;48.132;-1.210;2022-10-16T04:07:36;9.33;;;6.13;;
17790;SDS011;9019;48.132;-1.210;2022-10-16T04:10:04;10.03;;;5.67;;
17790;SDS011;9019;48.132;-1.210;2022-10-16T04:12:31;11.90;;;5.27;;
17790;SDS011;9019;48.132;-1.210;2022-10-16T04:14:58;9.20;;;5.40;;
17790;SDS011;9019;48.132;-1.210;2022-10-16T04:17:27;10.33;;;5.40;;
17790;SDS011;9019;48.132;-1.210;2022-10-16T04:19:54;14.27;;;5.73;;
17790;SDS011;9019;48.132;-1.210;2022-10-16T04:22:21;13.87;;;6.00;;
17790;SDS011;9019;48.132;-1.210;2022-10-16T04:24:48;8.60;;;5.37;;
17790;SDS011;9019;48.132;-1.210;2022-10-16T04:27:16;13.10;;;5.80;;
17790;SDS011;9019;48.132;-1.210;2022-10-16T04:29:43;13.93;;;5.57;;
17790;SDS011;9019;48.132;-1.210;2022-10-16T04:32:10;14.10;;;5.40;;
17790;SDS011;9019;48.132;-1.210;2022-10-16T04:34:40;10.37;;;5.47;;
17790;SDS011;9019;48.132;-1.210;2022-10-16T04:37:07;11.87;;;5.73;;
17790;SDS011;9019;48.132;-1.210;2022-10-16T04:39:34;12.37;;;6.00;;
17790;SDS011;9019;48.132;-1.210;2022-10-16T04:42:01;12.60;;;6.07;;
17790;SDS011;9019;48.132;-1.210;2022-10-16T04:44:29;14.03;;;6.13;;
17790;SDS011;9019;48.132;-1.210;2022-10-16T04:46:56;12.83;;;6.67;;
17790;SDS011;9019;48.132;-1.210;2022-10-16T04:49:23;12.37;;;5.90;;
17790;SDS011;9019;48.132;-1.210;2022-10-16T04:51:52;11.67;;;6.50;;
17790;SDS011;9019;48.132;-1.210;2022-10-16T04:54:19;12.57;;;6.03;;
17790;SDS011;9019;48.132;-1.210;2022-10-16T04:56:46;13.40;;;6.90;;
17790;SDS011;9019;48.132;-1.210;2022-10-16T04:59:15;14.87;;;7.53;;
17790;SDS011;9019;48.132;-1.210;2022-10-16T05:01:43;14.27;;;7.27;;
17790;SDS011;9019;48.132;-1.210;2022-10-16T05:04:10;13.23;;;7.10;;
17790;SDS011;9019;48.132;-1.210;2022-10-16T05:06:37;11.77;;;7.07;;
17790;SDS011;9019;48.132;-1.210;2022-10-16T05:09:06;13.13;;;7.63;;
17790;SDS011;9019;48.132;-1.210;2022-10-16T05:11:34;12.47;;;7.17;;
17790;SDS011;9019;48.132;-1.210;2022-10-16T05:14:01;14.20;;;7.33;;
17790;SDS011;9019;48.132;-1.210;2022-10-16T05:16:29;14.10;;;7.30;;
17790;SDS011;9019;48.132;-1.210;2022-10-16T05:18:56;16.70;;;8.17;;
17790;SDS011;9019;48.132;-1.210;2022-10-16T05:21:23;13.10;;;7.67;;
17790;SDS011;9019;48.132;-1.210;2022-10-16T05:23:52;16.13;;;9.03;;
17790;SDS011;9019;48.132;-1.210;2022-10-16T05:26:21;17.97;;;8.93;;
17790;SDS011;9019;48.132;-1.210;2022-10-16T05:28:49;16.37;;;9.57;;
17790;SDS011;9019;48.132;-1.210;2022-10-16T05:31:16;17.43;;;8.97;;
17790;SDS011;9019;48.132;-1.210;2022-10-16T05:33:43;19.33;;;9.40;;
17790;SDS011;9019;48.132;-1.210;2022-10-16T05:36:10;18.50;;;9.43;;
17790;SDS011;9019;48.132;-1.210;2022-10-16T05:38:38;22.30;;;9.90;;
17790;SDS011;9019;48.132;-1.210;2022-10-16T05:41:05;20.87;;;9.50;;
17790;SDS011;9019;48.132;-1.210;2022-10-16T05:43:34;20.63;;;10.00;;
17790;SDS011;9019;48.132;-1.210;2022-10-16T05:46:02;22.17;;;9.87;;
17790;SDS011;9019;48.132;-1.210;2022-10-16T05:48:29;21.40;;;9.50;;
17790;SDS011;9019;48.132;-1.210;2022-10-16T05:50:57;19.47;;;10.13;;
17790;SDS011;9019;48.132;-1.210;2022-10-16T05:53:24;20.23;;;10.43;;
17790;SDS011;9019;48.132;-1.210;2022-10-16T05:55:52;21.43;;;10.27;;
17790;SDS011;9019;48.132;-1.210;2022-10-16T05:58:19;19.30;;;9.80;;
17790;SDS011;9019;48.132;-1.210;2022-10-16T06:00:59;22.43;;;10.63;;
17790;SDS011;9019;48.132;-1.210;2022-10-16T06:03:27;19.90;;;9.20;;
17790;SDS011;9019;48.132;-1.210;2022-10-16T06:05:54;19.67;;;10.20;;
17790;SDS011;9019;48.132;-1.210;2022-10-16T06:08:21;24.73;;;10.00;;
17790;SDS011;9019;48.132;-1.210;2022-10-16T06:10:49;22.00;;;10.37;;
17790;SDS011;9019;48.132;-1.210;2022-10-16T06:13:16;20.57;;;10.13;;
17790;SDS011;9019;48.132;-1.210;2022-10-16T06:15:43;19.17;;;9.83;;
17790;SDS011;9019;48.132;-1.210;2022-10-16T06:18:12;19.17;;;10.50;;
17790;SDS011;9019;48.132;-1.210;2022-10-16T06:20:40;24.83;;;10.57;;
17790;SDS011;9019;48.132;-1.210;2022-10-16T06:23:07;20.63;;;10.20;;
17790;SDS011;9019;48.132;-1.210;2022-10-16T06:25:34;22.53;;;10.13;;
17790;SDS011;9019;48.132;-1.210;2022-10-16T06:28:01;22.07;;;10.20;;
17790;SDS011;9019;48.132;-1.210;2022-10-16T06:30:28;18.87;;;9.47;;
17790;SDS011;9019;48.132;-1.210;2022-10-16T06:32:55;17.87;;;9.70;;
17790;SDS011;9019;48.132;-1.210;2022-10-16T06:35:24;18.37;;;9.40;;
17790;SDS011;9019;48.132;-1.210;2022-10-16T06:37:52;17.77;;;8.73;;
17790;SDS011;9019;48.132;-1.210;2022-10-16T06:40:19;16.77;;;8.93;;
17790;SDS011;9019;48.132;-1.210;2022-10-16T06:42:46;15.60;;;8.13;;
17790;SDS011;9019;48.132;-1.210;2022-10-16T06:45:14;12.37;;;7.40;;
17790;SDS011;9019;48.132;-1.210;2022-10-16T06:47:41;12.93;;;6.73;;
17790;SDS011;9019;48.132;-1.210;2022-10-16T06:50:08;14.47;;;7.07;;
17790;SDS011;9019;48.132;-1.210;2022-10-16T06:52:37;14.30;;;7.50;;
17790;SDS011;9019;48.132;-1.210;2022-10-16T06:55:04;13.13;;;7.27;;
17790;SDS011;9019;48.132;-1.210;2022-10-16T06:57:31;15.60;;;7.10;;
17790;SDS011;9019;48.132;-1.210;2022-10-16T06:59:59;13.27;;;7.17;;
17790;SDS011;9019;48.132;-1.210;2022-10-16T07:02:26;14.37;;;7.60;;
17790;SDS011;9019;48.132;-1.210;2022-10-16T07:04:53;13.87;;;7.30;;
17790;SDS011;9019;48.132;-1.210;2022-10-16T07:07:22;14.47;;;7.87;;
17790;SDS011;9019;48.132;-1.210;2022-10-16T07:09:52;12.93;;;7.33;;
17790;SDS011;9019;48.132;-1.210;2022-10-16T07:12:20;15.10;;;7.73;;
17790;SDS011;9019;48.132;-1.210;2022-10-16T07:14:47;12.77;;;7.90;;
17790;SDS011;9019;48.132;-1.210;2022-10-16T07:17:16;12.20;;;7.20;;
17790;SDS011;9019;48.132;-1.210;2022-10-16T07:19:43;12.10;;;7.37;;
17790;SDS011;9019;48.132;-1.210;2022-10-16T07:22:10;13.00;;;7.57;;
17790;SDS011;9019;48.132;-1.210;2022-10-16T07:24:37;12.83;;;7.00;;
17790;SDS011;9019;48.132;-1.210;2022-10-16T07:27:06;9.87;;;6.63;;
17790;SDS011;9019;48.132;-1.210;2022-10-16T07:29:33;11.07;;;6.77;;
17790;SDS011;9019;48.132;-1.210;2022-10-16T07:32:01;9.70;;;6.50;;
17790;SDS011;9019;48.132;-1.210;2022-10-16T07:34:28;10.83;;;6.27;;
17790;SDS011;9019;48.132;-1.210;2022-10-16T07:36:56;10.40;;;6.53;;
17790;SDS011;9019;48.132;-1.210;2022-10-16T07:39:23;11.00;;;6.63;;
17790;SDS011;9019;48.132;-1.210;2022-10-16T07:41:50;10.07;;;6.60;;
17790;SDS011;9019;48.132;-1.210;2022-10-16T07:44:18;13.00;;;6.30;;
17790;SDS011;9019;48.132;-1.210;2022-10-16T07:46:46;10.30;;;5.80;;
17790;SDS011;9019;48.132;-1.210;2022-10-16T07:49:13;11.90;;;6.50;;
17790;SDS011;9019;48.132;-1.210;2022-10-16T07:51:40;11.77;;;6.20;;
17790;SDS011;9019;48.132;-1.210;2022-10-16T07:54:07;7.87;;;5.70;;
17790;SDS011;9019;48.132;-1.210;2022-10-16T07:56:35;7.13;;;5.13;;
17790;SDS011;9019;48.132;-1.210;2022-10-16T07:59:02;8.77;;;4.87;;
17790;SDS011;9019;48.132;-1.210;2022-10-16T08:01:30;7.80;;;5.23;;
17790;SDS011;9019;48.132;-1.210;2022-10-16T08:03:58;6.93;;;4.60;;
17790;SDS011;9019;48.132;-1.210;2022-10-16T08:06:25;7.53;;;5.13;;
17790;SDS011;9019;48.132;-1.210;2022-10-16T08:08:52;8.43;;;4.90;;
17790;SDS011;9019;48.132;-1.210;2022-10-16T08:11:19;5.50;;;4.05;;
17790;SDS011;9019;48.132;-1.210;2022-10-16T08:13:47;6.05;;;4.28;;
17790;SDS011;9019;48.132;-1.210;2022-10-16T08:16:15;4.80;;;3.67;;
17790;SDS011;9019;48.132;-1.210;2022-10-16T08:18:44;4.65;;;3.63;;
17790;SDS011;9019;48.132;-1.210;2022-10-16T08:21:12;4.53;;;3.10;;
17790;SDS011;9019;48.132;-1.210;2022-10-16T08:23:39;3.83;;;2.75;;
17790;SDS011;9019;48.132;-1.210;2022-10-16T08:26:07;3.55;;;2.33;;
17790;SDS011;9019;48.132;-1.210;2022-10-16T08:28:34;2.67;;;2.40;;
17790;SDS011;9019;48.132;-1.210;2022-10-16T08:31:05;3.05;;;2.20;;
17790;SDS011;9019;48.132;-1.210;2022-10-16T08:33:33;5.07;;;2.35;;
17790;SDS011;9019;48.132;-1.210;2022-10-16T08:36:02;7.32;;;4.47;;
17790;SDS011;9019;48.132;-1.210;2022-10-16T08:38:29;5.65;;;2.63;;
17790;SDS011;9019;48.132;-1.210;2022-10-16T08:41:07;3.95;;;2.38;;
17790;SDS011;9019;48.132;-1.210;2022-10-16T08:43:41;3.90;;;1.83;;
17790;SDS011;9019;48.132;-1.210;2022-10-16T08:46:15;2.85;;;1.63;;
17790;SDS011;9019;48.132;-1.210;2022-10-16T08:48:43;2.97;;;1.55;;
17790;SDS011;9019;48.132;-1.210;2022-10-16T08:51:15;3.53;;;1.25;;
17790;SDS011;9019;48.132;-1.210;2022-10-16T08:53:46;2.17;;;1.20;;
17790;SDS011;9019;48.132;-1.210;2022-10-16T08:56:16;2.95;;;1.10;;
17790;SDS011;9019;48.132;-1.210;2022-10-16T08:58:44;3.47;;;1.23;;
17790;SDS011;9019;48.132;-1.210;2022-10-16T09:01:13;2.40;;;0.98;;
17790;SDS011;9019;48.132;-1.210;2022-10-16T09:03:46;2.45;;;1.08;;
17790;SDS011;9019;48.132;-1.210;2022-10-16T09:06:23;4.90;;;1.30;;
17790;SDS011;9019;48.132;-1.210;2022-10-16T09:08:56;2.42;;;1.33;;
17790;SDS011;9019;48.132;-1.210;2022-10-16T09:11:27;2.28;;;1.10;;
17790;SDS011;9019;48.132;-1.210;2022-10-16T09:13:59;3.25;;;1.10;;
17790;SDS011;9019;48.132;-1.210;2022-10-16T09:16:32;4.68;;;1.30;;
17790;SDS011;9019;48.132;-1.210;2022-10-16T09:19:03;3.22;;;1.30;;
17790;SDS011;9019;48.132;-1.210;2022-10-16T09:21:35;1.52;;;1.00;;
17790;SDS011;9019;48.132;-1.210;2022-10-16T09:24:06;4.18;;;1.30;;
17790;SDS011;9019;48.132;-1.210;2022-10-16T09:26:36;2.78;;;1.30;;
17790;SDS011;9019;48.132;-1.210;2022-10-16T09:29:03;2.38;;;1.20;;
17790;SDS011;9019;48.132;-1.210;2022-10-16T09:31:31;1.58;;;1.08;;
17790;SDS011;9019;48.132;-1.210;2022-10-16T09:33:59;1.88;;;1.30;;
17790;SDS011;9019;48.132;-1.210;2022-10-16T09:36:29;3.85;;;1.52;;
17790;SDS011;9019;48.132;-1.210;2022-10-16T09:39:05;5.75;;;1.40;;
17790;SDS011;9019;48.132;-1.210;2022-10-16T09:41:34;4.18;;;1.40;;
17790;SDS011;9019;48.132;-1.210;2022-10-16T09:44:01;3.40;;;0.80;;
17790;SDS011;9019;48.132;-1.210;2022-10-16T09:46:29;3.65;;;1.20;;
17790;SDS011;9019;48.132;-1.210;2022-10-16T09:48:58;4.13;;;1.10;;
17790;SDS011;9019;48.132;-1.210;2022-10-16T09:51:26;1.98;;;0.65;;
17790;SDS011;9019;48.132;-1.210;2022-10-16T09:53:55;3.47;;;0.82;;
17790;SDS011;9019;48.132;-1.210;2022-10-16T09:56:24;4.63;;;0.77;;
17790;SDS011;9019;48.132;-1.210;2022-10-16T09:58:52;2.55;;;0.70;;
17790;SDS011;9019;48.132;-1.210;2022-10-16T10:01:20;3.20;;;0.77;;
17790;SDS011;9019;48.132;-1.210;2022-10-16T10:03:47;3.90;;;1.00;;
17790;SDS011;9019;48.132;-1.210;2022-10-16T10:06:22;2.67;;;0.80;;
17790;SDS011;9019;48.132;-1.210;2022-10-16T10:08:54;1.48;;;0.80;;
17790;SDS011;9019;48.132;-1.210;2022-10-16T10:11:39;3.08;;;0.60;;
17790;SDS011;9019;48.132;-1.210;2022-10-16T10:14:09;2.25;;;0.70;;
17790;SDS011;9019;48.132;-1.210;2022-10-16T10:16:40;4.72;;;0.77;;
17790;SDS011;9019;48.132;-1.210;2022-10-16T10:19:09;2.78;;;0.80;;
17790;SDS011;9019;48.132;-1.210;2022-10-16T10:21:40;3.60;;;0.90;;
17790;SDS011;9019;48.132;-1.210;2022-10-16T10:24:09;3.53;;;0.80;;
17790;SDS011;9019;48.132;-1.210;2022-10-16T10:26:36;3.65;;;0.80;;
17790;SDS011;9019;48.132;-1.210;2022-10-16T10:29:06;2.03;;;0.70;;
17790;SDS011;9019;48.132;-1.210;2022-10-16T10:31:36;3.00;;;0.75;;
17790;SDS011;9019;48.132;-1.210;2022-10-16T10:34:11;2.90;;;0.80;;
17790;SDS011;9019;48.132;-1.210;2022-10-16T10:36:43;2.05;;;0.63;;
17790;SDS011;9019;48.132;-1.210;2022-10-16T10:39:12;2.38;;;1.00;;
17790;SDS011;9019;48.132;-1.210;2022-10-16T10:41:49;3.03;;;0.88;;
17790;SDS011;9019;48.132;-1.210;2022-10-16T10:44:23;2.00;;;0.88;;
17790;SDS011;9019;48.132;-1.210;2022-10-16T10:46:54;3.60;;;1.13;;
17790;SDS011;9019;48.132;-1.210;2022-10-16T10:49:29;2.53;;;1.23;;
17790;SDS011;9019;48.132;-1.210;2022-10-16T10:52:02;2.10;;;1.05;;
17790;SDS011;9019;48.132;-1.210;2022-10-16T10:54:36;1.67;;;0.73;;
17790;SDS011;9019;48.132;-1.210;2022-10-16T10:57:08;1.35;;;0.90;;
17790;SDS011;9019;48.132;-1.210;2022-10-16T10:59:45;3.10;;;1.35;;
17790;SDS011;9019;48.132;-1.210;2022-10-16T11:02:18;3.65;;;1.20;;
17790;SDS011;9019;48.132;-1.210;2022-10-16T11:04:58;2.45;;;1.10;;
17790;SDS011;9019;48.132;-1.210;2022-10-16T11:07:30;4.32;;;1.38;;
17790;SDS011;9019;48.132;-1.210;2022-10-16T11:09:58;3.35;;;1.30;;
17790;SDS011;9019;48.132;-1.210;2022-10-16T11:12:29;2.78;;;1.40;;
17790;SDS011;9019;48.132;-1.210;2022-10-16T11:15:00;2.65;;;1.42;;
17790;SDS011;9019;48.132;-1.210;2022-10-16T11:17:29;3.20;;;1.48;;
17790;SDS011;9019;48.132;-1.210;2022-10-16T11:19:58;3.78;;;1.80;;
17790;SDS011;9019;48.132;-1.210;2022-10-16T11:22:28;7.40;;;1.77;;
17790;SDS011;9019;48.132;-1.210;2022-10-16T11:24:59;2.53;;;1.50;;
17790;SDS011;9019;48.132;-1.210;2022-10-16T11:27:32;2.75;;;1.70;;
17790;SDS011;9019;48.132;-1.210;2022-10-16T11:30:03;3.50;;;1.70;;
17790;SDS011;9019;48.132;-1.210;2022-10-16T11:32:31;2.65;;;1.40;;
17790;SDS011;9019;48.132;-1.210;2022-10-16T11:35:02;4.07;;;1.52;;
17790;SDS011;9019;48.132;-1.210;2022-10-16T11:37:32;5.25;;;1.50;;
17790;SDS011;9019;48.132;-1.210;2022-10-16T11:40:04;3.70;;;1.80;;
17790;SDS011;9019;48.132;-1.210;2022-10-16T11:42:38;2.60;;;1.60;;
17790;SDS011;9019;48.132;-1.210;2022-10-16T11:45:12;3.58;;;2.10;;
17790;SDS011;9019;48.132;-1.210;2022-10-16T11:47:43;4.57;;;2.33;;
17790;SDS011;9019;48.132;-1.210;2022-10-16T11:50:13;3.80;;;1.90;;
17790;SDS011;9019;48.132;-1.210;2022-10-16T11:52:48;2.22;;;1.77;;
17790;SDS011;9019;48.132;-1.210;2022-10-16T11:55:20;3.65;;;1.92;;
17790;SDS011;9019;48.132;-1.210;2022-10-16T11:57:48;2.28;;;1.50;;
17790;SDS011;9019;48.132;-1.210;2022-10-16T12:00:20;4.38;;;2.03;;
17790;SDS011;9019;48.132;-1.210;2022-10-16T12:02:50;2.58;;;1.60;;
17790;SDS011;9019;48.132;-1.210;2022-10-16T12:05:23;4.10;;;1.73;;
17790;SDS011;9019;48.132;-1.210;2022-10-16T12:07:55;7.00;;;1.70;;
17790;SDS011;9019;48.132;-1.210;2022-10-16T12:10:26;3.35;;;1.50;;
17790;SDS011;9019;48.132;-1.210;2022-10-16T12:12:54;1.35;;;1.02;;
17790;SDS011;9019;48.132;-1.210;2022-10-16T12:15:25;2.65;;;1.25;;
17790;SDS011;9019;48.132;-1.210;2022-10-16T12:17:52;1.92;;;1.13;;
17790;SDS011;9019;48.132;-1.210;2022-10-16T12:20:21;2.42;;;1.00;;
17790;SDS011;9019;48.132;-1.210;2022-10-16T12:22:51;0.93;;;0.75;;
17790;SDS011;9019;48.132;-1.210;2022-10-16T12:25:20;2.85;;;0.93;;
17790;SDS011;9019;48.132;-1.210;2022-10-16T12:27:53;1.42;;;0.80;;
17790;SDS011;9019;48.132;-1.210;2022-10-16T12:30:22;3.60;;;0.90;;
17790;SDS011;9019;48.132;-1.210;2022-10-16T12:32:54;3.83;;;0.98;;
17790;SDS011;9019;48.132;-1.210;2022-10-16T12:35:22;2.13;;;0.90;;
17790;SDS011;9019;48.132;-1.210;2022-10-16T12:37:50;3.33;;;0.93;;
17790;SDS011;9019;48.132;-1.210;2022-10-16T12:40:24;1.30;;;0.70;;
17790;SDS011;9019;48.132;-1.210;2022-10-16T12:42:52;2.33;;;0.85;;
17790;SDS011;9019;48.132;-1.210;2022-10-16T12:45:27;1.38;;;0.80;;
17790;SDS011;9019;48.132;-1.210;2022-10-16T12:47:57;1.45;;;0.90;;
17790;SDS011;9019;48.132;-1.210;2022-10-16T12:50:26;1.00;;;0.75;;
17790;SDS011;9019;48.132;-1.210;2022-10-16T12:52:53;1.50;;;0.88;;
17790;SDS011;9019;48.132;-1.210;2022-10-16T12:55:21;2.03;;;0.80;;
17790;SDS011;9019;48.132;-1.210;2022-10-16T12:58:01;0.60;;;0.60;;
17790;SDS011;9019;48.132;-1.210;2022-10-16T13:00:31;2.97;;;1.30;;
17790;SDS011;9019;48.132;-1.210;2022-10-16T13:05:52;1.13;;;0.90;;
17790;SDS011;9019;48.132;-1.210;2022-10-16T13:11:13;1.05;;;0.70;;
17790;SDS011;9019;48.132;-1.210;2022-10-16T13:14:02;2.28;;;0.90;;
17790;SDS011;9019;48.132;-1.210;2022-10-16T13:16:35;1.50;;;0.82;;
17790;SDS011;9019;48.132;-1.210;2022-10-16T13:19:09;1.80;;;1.00;;
17790;SDS011;9019;48.132;-1.210;2022-10-16T13:21:43;2.05;;;1.20;;
17790;SDS011;9019;48.132;-1.210;2022-10-16T13:24:19;2.65;;;0.95;;
17790;SDS011;9019;48.132;-1.210;2022-10-16T13:26:53;2.22;;;0.98;;
17790;SDS011;9019;48.132;-1.210;2022-10-16T13:29:22;1.23;;;0.93;;
17790;SDS011;9019;48.132;-1.210;2022-10-16T13:31:49;2.15;;;1.13;;
17790;SDS011;9019;48.132;-1.210;2022-10-16T13:34:18;4.10;;;1.20;;
17790;SDS011;9019;48.132;-1.210;2022-10-16T13:36:48;2.10;;;1.10;;
17790;SDS011;9019;48.132;-1.210;2022-10-16T13:39:20;1.65;;;1.30;;
17790;SDS011;9019;48.132;-1.210;2022-10-16T13:41:57;1.45;;;0.85;;
17790;SDS011;9019;48.132;-1.210;2022-10-16T13:44:24;1.23;;;1.10;;
17790;SDS011;9019;48.132;-1.210;2022-10-16T13:46:58;1.23;;;1.00;;
17790;SDS011;9019;48.132;-1.210;2022-10-16T13:49:26;1.20;;;0.90;;
17790;SDS011;9019;48.132;-1.210;2022-10-16T13:51:55;2.00;;;1.00;;
17790;SDS011;9019;48.132;-1.210;2022-10-16T13:54:22;1.60;;;1.00;;
17790;SDS011;9019;48.132;-1.210;2022-10-16T13:56:50;1.23;;;0.95;;
17790;SDS011;9019;48.132;-1.210;2022-10-16T13:59:23;1.42;;;1.15;;
17790;SDS011;9019;48.132;-1.210;2022-10-16T14:01:51;1.00;;;0.90;;
17790;SDS011;9019;48.132;-1.210;2022-10-16T14:04:19;2.25;;;1.20;;
17790;SDS011;9019;48.132;-1.210;2022-10-16T14:06:48;1.45;;;1.20;;
17790;SDS011;9019;48.132;-1.210;2022-10-16T14:09:19;1.90;;;1.02;;
17790;SDS011;9019;48.132;-1.210;2022-10-16T14:11:48;1.42;;;1.02;;
17790;SDS011;9019;48.132;-1.210;2022-10-16T14:14:17;1.38;;;0.90;;
17790;SDS011;9019;48.132;-1.210;2022-10-16T14:16:45;2.30;;;1.13;;
17790;SDS011;9019;48.132;-1.210;2022-10-16T14:19:13;1.50;;;1.15;;
17790;SDS011;9019;48.132;-1.210;2022-10-16T14:21:42;3.10;;;1.00;;
17790;SDS011;9019;48.132;-1.210;2022-10-16T14:24:12;1.55;;;1.00;;
17790;SDS011;9019;48.132;-1.210;2022-10-16T14:26:42;1.20;;;1.00;;
17790;SDS011;9019;48.132;-1.210;2022-10-16T14:29:13;1.35;;;1.25;;
17790;SDS011;9019;48.132;-1.210;2022-10-16T14:31:40;2.15;;;0.98;;
17790;SDS011;9019;48.132;-1.210;2022-10-16T14:34:24;1.70;;;1.30;;
17790;SDS011;9019;48.132;-1.210;2022-10-16T14:36:52;1.30;;;1.20;;
17790;SDS011;9019;48.132;-1.210;2022-10-16T14:39:20;2.38;;;1.45;;
17790;SDS011;9019;48.132;-1.210;2022-10-16T14:41:50;2.38;;;1.20;;
17790;SDS011;9019;48.132;-1.210;2022-10-16T14:44:18;1.90;;;1.27;;
17790;SDS011;9019;48.132;-1.210;2022-10-16T14:46:46;1.30;;;1.20;;
17790;SDS011;9019;48.132;-1.210;2022-10-16T14:49:15;1.77;;;1.30;;
17790;SDS011;9019;48.132;-1.210;2022-10-16T14:51:43;1.65;;;1.40;;
17790;SDS011;9019;48.132;-1.210;2022-10-16T14:54:11;2.47;;;1.60;;
17790;SDS011;9019;48.132;-1.210;2022-10-16T14:56:42;2.97;;;1.50;;
17790;SDS011;9019;48.132;-1.210;2022-10-16T14:59:13;3.60;;;1.70;;